Time;durP1;ratioP1;P1;durP2;ratioP2;P2;SDS_P1;SDS_P2;PMS_P1;PMS_P2;Temp;Humidity;BMP_temperature;BMP_pressure;BME280_temperature;BME280_humidity;BME280_pressure;Samples;Min_cycle;Max_cycle;Signal;HPM_P1;HPM_P2
2023/04/19 00:00:42;;;;;;;3.97;3.00;;;;;;;;;;6291052;28;20203;-71
2023/04/19 00:03:43;;;;;;;4.67;4.27;;;;;;;;;;6298177;28;20193;-71
2023/04/19 00:06:45;;;;;;;5.47;4.33;;;;;;;;;;6296270;28;20202;-71
2023/04/19 00:09:46;;;;;;;5.07;4.57;;;;;;;;;;6315139;28;20217;-71
2023/04/19 00:12:47;;;;;;;5.43;4.67;;;;;;;;;;6285359;28;20181;-71
2023/04/19 00:15:48;;;;;;;4.83;4.33;;;;;;;;;;6284549;28;20192;-71
2023/04/19 00:18:49;;;;;;;5.07;4.67;;;;;;;;;;6293354;28;20204;-71
2023/04/19 00:21:50;;;;;;;6.83;5.03;;;;;;;;;;6315256;28;20224;-71
2023/04/19 00:24:51;;;;;;;5.30;4.47;;;;;;;;;;6300205;28;20188;-71
2023/04/19 00:27:52;;;;;;;5.20;4.30;;;;;;;;;;6307952;28;20300;-71
2023/04/19 00:30:53;;;;;;;7.83;4.80;;;;;;;;;;6301880;28;20193;-71
2023/04/19 00:33:54;;;;;;;5.63;4.80;;;;;;;;;;6297936;28;20248;-71
2023/04/19 00:36:56;;;;;;;5.63;4.23;;;;;;;;;;6298679;28;20196;-71
2023/04/19 00:39:57;;;;;;;5.47;4.53;;;;;;;;;;6314097;28;20178;-71
2023/04/19 00:42:58;;;;;;;6.37;4.77;;;;;;;;;;6297015;28;20220;-71
2023/04/19 00:46:00;;;;;;;5.87;4.67;;;;;;;;;;6307618;28;20177;-71
2023/04/19 00:49:35;;;;;;;4.40;4.00;;;;;;;;;;6314713;28;20217;-71
2023/04/19 00:52:36;;;;;;;5.23;4.73;;;;;;;;;;6300319;28;20197;-71
2023/04/19 00:55:41;;;;;;;6.50;5.20;;;;;;;;;;6286606;28;20227;-71
2023/04/19 00:58:42;;;;;;;5.87;4.93;;;;;;;;;;6313110;28;20186;-71
2023/04/19 01:01:43;;;;;;;7.50;5.57;;;;;;;;;;6291449;28;20189;-71
2023/04/19 01:04:44;;;;;;;5.80;5.10;;;;;;;;;;6298038;28;20199;-71
2023/04/19 01:07:45;;;;;;;6.43;5.63;;;;;;;;;;6283402;28;20221;-71
2023/04/19 01:10:46;;;;;;;5.60;4.53;;;;;;;;;;6310144;28;20257;-71
2023/04/19 01:13:47;;;;;;;4.80;4.40;;;;;;;;;;6284004;28;20211;-71
2023/04/19 01:16:49;;;;;;;5.90;4.30;;;;;;;;;;6298382;28;20250;-71
2023/04/19 01:19:58;;;;;;;5.00;4.23;;;;;;;;;;6314397;28;20196;-71
2023/04/19 01:22:59;;;;;;;4.33;4.03;;;;;;;;;;6298232;28;20181;-71
2023/04/19 01:26:03;;;;;;;5.30;4.13;;;;;;;;;;6275487;28;20197;-71
2023/04/19 01:29:04;;;;;;;4.23;3.83;;;;;;;;;;6287132;28;20213;-71
2023/04/19 01:32:05;;;;;;;4.10;3.70;;;;;;;;;;6294692;28;20196;-71
2023/04/19 01:35:06;;;;;;;6.00;4.53;;;;;;;;;;6301002;28;20239;-71
2023/04/19 01:38:07;;;;;;;4.20;3.80;;;;;;;;;;6290707;28;20194;-71
2023/04/19 01:41:08;;;;;;;4.90;3.77;;;;;;;;;;6322896;28;20196;-71
2023/04/19 01:44:09;;;;;;;4.30;3.90;;;;;;;;;;6288397;28;20225;-71
2023/04/19 01:47:11;;;;;;;4.60;4.20;;;;;;;;;;6297644;28;20218;-71
2023/04/19 01:50:12;;;;;;;4.53;4.03;;;;;;;;;;6321578;28;20234;-71
2023/04/19 01:53:13;;;;;;;4.13;3.73;;;;;;;;;;6289232;28;20195;-71
2023/04/19 01:56:14;;;;;;;4.23;3.83;;;;;;;;;;6297747;28;20193;-71
2023/04/19 01:59:15;;;;;;;4.63;4.20;;;;;;;;;;6299783;28;20287;-71
2023/04/19 02:02:16;;;;;;;4.07;3.50;;;;;;;;;;6304564;28;20193;-71
2023/04/19 02:05:17;;;;;;;4.40;4.00;;;;;;;;;;6308230;28;20283;-71
2023/04/19 02:08:18;;;;;;;4.00;3.60;;;8.00;96.70;;;;;;6305253;28;20205;-71
2023/04/19 02:11:18;;;;;;;3.87;3.50;;;8.10;98.20;;;;;;6305361;28;20223;-71
2023/04/19 02:14:19;;;;;;;5.47;4.00;;;8.10;98.30;;;;;;6280692;28;20192;-71
2023/04/19 02:17:20;;;;;;;4.50;4.10;;;8.00;97.20;;;;;;6271670;28;20192;-71
2023/04/19 02:20:20;;;;;;;4.47;3.80;;;8.00;97.20;;;;;;6265086;28;20247;-71
2023/04/19 02:23:21;;;;;;;7.67;5.13;;;8.00;96.70;;;;;;6282804;28;20189;-71
2023/04/19 02:26:23;;;;;;;5.30;4.80;;;7.90;96.80;;;;;;6264164;28;20186;-71
2023/04/19 02:29:24;;;;;;;5.73;5.00;;;7.80;97.20;;;;;;6290603;28;20216;-71
2023/04/19 02:32:24;;;;;;;6.00;4.40;;;7.80;97.00;;;;;;6286446;28;20220;-71
2023/04/19 02:35:25;;;;;;;5.30;4.80;;;7.80;95.80;;;;;;6327222;28;20326;-71
2023/04/19 02:38:26;;;;;;;5.30;4.80;;;7.80;96.70;;;;;;6292664;28;20254;-71
2023/04/19 02:41:26;;;;;;;5.67;5.10;;;7.80;97.10;;;;;;6269089;28;20181;-71
2023/04/19 02:44:27;;;;;;;6.90;5.57;;;7.80;94.30;;;;;;6294881;28;20192;-71
2023/04/19 02:47:27;;;;;;;5.60;5.00;;;7.70;95.80;;;;;;6302836;28;20236;-71
2023/04/19 02:50:28;;;;;;;5.17;4.13;;;7.80;96.50;;;;;;6270634;28;20195;-71
2023/04/19 02:53:29;;;;;;;5.37;4.50;;;7.70;97.00;;;;;;6300618;28;20189;-71
2023/04/19 02:56:29;;;;;;;6.27;5.50;;;7.60;97.50;;;;;;6264463;28;20185;-71
2023/04/19 02:59:30;;;;;;;5.27;4.30;;;7.60;97.50;;;;;;6286471;28;20284;-71
2023/04/19 03:02:31;;;;;;;5.90;5.30;;;7.60;97.60;;;;;;6266943;28;20188;-71
2023/04/19 03:05:31;;;;;;;6.10;5.50;;;7.60;97.90;;;;;;6286498;28;20193;-71
2023/04/19 03:08:32;;;;;;;5.90;5.20;;;7.60;98.10;;;;;;6282836;28;20209;-71
2023/04/19 03:11:33;;;;;;;6.07;5.47;;;7.60;97.60;;;;;;6303759;28;20192;-71
2023/04/19 03:14:34;;;;;;;5.63;4.90;;;7.50;97.90;;;;;;6285680;28;20275;-71
2023/04/19 03:17:36;;;;;;;6.27;5.63;;;7.50;97.90;;;;;;6278426;28;20192;-71
2023/04/19 03:20:36;;;;;;;5.63;5.13;;;7.50;97.80;;;;;;6301323;28;20190;-71
2023/04/19 03:23:37;;;;;;;6.93;5.00;;;7.50;98.00;;;;;;6267484;28;20213;-71
2023/04/19 03:26:38;;;;;;;6.77;5.70;;;7.40;97.00;;;;;;6297779;28;20200;-71
2023/04/19 03:29:38;;;;;;;5.90;5.40;;;7.40;97.20;;;;;;6270188;28;20220;-71
2023/04/19 03:32:39;;;;;;;7.87;5.93;;;7.40;94.70;;;;;;6288977;28;20193;-71
2023/04/19 03:35:40;;;;;;;6.50;5.83;;;7.40;95.20;;;;;;6290040;28;20224;-71
2023/04/19 03:38:40;;;;;;;6.77;5.93;;;7.20;95.90;;;;;;6290404;28;20188;-71
2023/04/19 03:41:41;;;;;;;7.43;5.80;;;7.20;96.20;;;;;;6279425;28;20190;-71
2023/04/19 03:44:42;;;;;;;6.77;6.13;;;7.20;94.80;;;;;;6285540;28;20193;-71
2023/04/19 03:47:42;;;;;;;5.93;5.33;;;7.20;94.80;;;;;;6247605;28;20205;-71
2023/04/19 03:50:43;;;;;;;6.37;5.70;;;7.30;92.90;;;;;;6286377;28;20270;-71
2023/04/19 03:53:44;;;;;;;6.43;5.50;;;7.20;94.50;;;;;;6284080;28;20268;-73
2023/04/19 03:56:44;;;;;;;5.07;4.60;;;7.20;95.20;;;;;;6283749;28;20189;-73
2023/04/19 03:59:45;;;;;;;7.97;5.77;;;7.20;95.80;;;;;;6283324;28;20229;-73
2023/04/19 04:02:45;;;;;;;5.93;5.33;;;7.10;95.90;;;;;;6303812;28;20194;-72
2023/04/19 04:05:47;;;;;;;7.37;5.70;;;7.10;95.90;;;;;;6307587;28;20192;-73
2023/04/19 04:08:48;;;;;;;7.77;6.10;;;7.00;96.20;;;;;;6307219;28;20212;-71
2023/04/19 04:11:49;;;;;;;6.20;5.60;;;7.00;96.20;;;;;;6274174;28;20188;-71
2023/04/19 04:14:49;;;;;;;7.43;5.40;;;7.00;96.60;;;;;;6282240;28;20189;-71
2023/04/19 04:17:50;;;;;;;10.20;5.73;;;7.00;96.60;;;;;;6287492;28;20189;-71
2023/04/19 04:20:51;;;;;;;6.07;5.43;;;7.00;96.80;;;;;;6283584;28;20196;-71
2023/04/19 04:23:52;;;;;;;6.33;5.20;;;7.00;96.90;;;;;;6290008;28;20284;-71
2023/04/19 04:26:53;;;;;;;5.80;5.23;;;7.00;97.00;;;;;;6281789;28;20201;-70
2023/04/19 04:29:55;;;;;;;6.80;5.43;;;6.90;97.20;;;;;;6291502;28;20204;-71
2023/04/19 04:32:57;;;;;;;6.70;6.10;;;6.90;97.40;;;;;;6288417;28;20208;-72
2023/04/19 04:35:58;;;;;;;6.03;5.37;;;6.90;97.40;;;;;;6279797;28;20193;-72
2023/04/19 04:39:00;;;;;;;7.07;6.27;;;6.90;97.80;;;;;;6269308;28;20280;-72
2023/04/19 04:42:01;;;;;;;6.40;5.67;;;6.90;97.80;;;;;;6272380;28;20193;-71
2023/04/19 04:45:02;;;;;;;6.30;5.30;;;7.00;97.80;;;;;;6282148;28;20213;-71
2023/04/19 04:48:03;;;;;;;7.27;6.57;;;7.00;97.90;;;;;;6278300;28;20232;-71
2023/04/19 04:51:04;;;;;;;6.80;6.10;;;7.00;97.90;;;;;;6265542;28;20189;-72
2023/04/19 04:54:04;;;;;;;6.77;6.07;;;7.00;97.60;;;;;;6285808;28;20181;-72
2023/04/19 04:57:05;;;;;;;7.30;6.30;;;7.00;97.30;;;;;;6296102;28;20193;-71
2023/04/19 05:00:08;;;;;;;6.83;5.93;;;7.00;96.00;;;;;;6279885;28;20177;-71
2023/04/19 05:03:08;;;;;;;8.17;6.67;;;7.00;94.00;;;;;;6282124;28;20186;-71
2023/04/19 05:06:09;;;;;;;6.33;5.73;;;7.20;92.30;;;;;;6274913;28;20220;-71
2023/04/19 05:09:10;;;;;;;7.33;5.83;;;7.50;90.10;;;;;;6278756;28;20273;-71
2023/04/19 05:12:11;;;;;;;6.23;5.63;;;7.50;90.80;;;;;;6277614;28;20216;-71
2023/04/19 05:15:11;;;;;;;6.63;5.83;;;7.50;92.30;;;;;;6261150;28;20189;-69
2023/04/19 05:18:12;;;;;;;7.20;6.10;;;7.50;93.30;;;;;;6293937;28;20276;-71
2023/04/19 05:21:12;;;;;;;5.87;5.20;;;7.60;94.60;;;;;;6266161;28;20194;-71
2023/04/19 05:24:13;;;;;;;6.47;5.77;;;7.60;93.20;;;;;;6253157;28;20299;-71
2023/04/19 05:27:14;;;;;;;6.37;5.77;;;7.70;94.40;;;;;;6290177;28;20245;-71
2023/04/19 05:30:15;;;;;;;8.20;6.57;;;7.80;95.40;;;;;;6266965;28;20186;-71
2023/04/19 05:33:15;;;;;;;6.90;6.20;;;7.80;91.70;;;;;;6285729;28;20233;-71
2023/04/19 05:36:16;;;;;;;8.43;6.20;;;8.00;93.80;;;;;;6264686;28;20200;-71
2023/04/19 05:39:17;;;;;;;6.87;6.23;;;8.00;94.00;;;;;;6284617;28;20194;-71
2023/04/19 05:42:17;;;;;;;7.83;5.80;;;8.10;94.50;;;;;;6275573;28;20197;-68
2023/04/19 05:45:18;;;;;;;6.27;5.67;;;8.20;95.20;;;;;;6282573;28;20201;-68
2023/04/19 05:48:19;;;;;;;6.17;5.63;;;8.20;92.30;;;;;;6279051;28;20232;-68
2023/04/19 05:51:19;;;;;;;6.63;5.43;;;8.30;91.60;;;;;;6285794;28;20186;-68
2023/04/19 05:54:20;;;;;;;6.10;5.50;;;8.30;92.20;;;;;;6286088;28;20185;-68
2023/04/19 05:57:20;;;;;;;8.40;5.63;;;8.40;93.50;;;;;;6285104;28;20235;-68
2023/04/19 06:00:21;;;;;;;6.20;5.50;;;8.50;94.60;;;;;;6260753;28;20189;-68
2023/04/19 06:03:22;;;;;;;6.90;6.27;;;8.60;95.50;;;;;;6264462;28;20180;-69
2023/04/19 06:06:23;;;;;;;6.40;5.70;;;8.60;95.70;;;;;;6259517;28;20185;-68
2023/04/19 06:09:23;;;;;;;9.13;5.60;;;8.70;95.80;;;;;;6274470;28;20221;-69
2023/04/19 06:12:24;;;;;;;6.67;5.97;;;8.80;95.30;;;;;;6290885;28;20188;-68
2023/04/19 06:15:25;;;;;;;5.27;4.43;;;;;;;;;;6254993;28;20266;-67
2023/04/19 06:18:26;;;;;;;7.17;5.10;;;;;;;;;;6319662;28;20200;-70
2023/04/19 06:21:30;;;;;;;8.37;5.90;;;;;;;;;;6311744;28;20192;-73
2023/04/19 06:24:31;;;;;;;5.40;4.90;;;;;;;;;;6294880;28;20285;-70
2023/04/19 06:27:32;;;;;;;6.90;5.40;;;8.90;88.20;;;;;;6281711;28;20328;-72
2023/04/19 06:30:32;;;;;;;6.23;5.67;;;8.90;88.20;;;;;;6269675;28;20201;-72
2023/04/19 06:33:33;;;;;;;8.10;5.90;;;8.90;90.60;;;;;;6285020;28;20233;-72
2023/04/19 06:36:34;;;;;;;7.67;5.40;;;8.90;90.40;;;;;;6275073;28;20191;-70
2023/04/19 06:39:34;;;;;;;6.80;5.47;;;8.90;91.60;;;;;;6261409;28;20217;-74
2023/04/19 06:42:35;;;;;;;6.50;5.73;;;9.00;91.20;;;;;;6278005;28;20216;-72
2023/04/19 06:45:36;;;;;;;7.83;5.57;;;9.00;92.10;;;;;;6288373;28;20189;-72
2023/04/19 06:48:37;;;;;;;6.80;5.40;;;9.00;91.00;;;;;;6270211;28;20232;-72
2023/04/19 06:51:38;;;;;;;6.53;5.70;;;9.20;90.00;;;;;;6278520;28;20280;-72
2023/04/19 06:54:39;;;;;;;6.87;6.17;;;9.20;90.90;;;;;;6290463;28;20186;-72
2023/04/19 06:57:41;;;;;;;5.17;4.67;;;9.20;89.50;;;;;;6266911;28;20285;-72
2023/04/19 07:00:42;;;;;;;5.67;5.10;;;9.30;86.20;;;;;;6291227;28;20197;-74
2023/04/19 07:03:44;;;;;;;6.13;5.23;;;9.40;79.00;;;;;;6281359;28;20306;-74
2023/04/19 07:06:48;;;;;;;7.63;5.13;;;9.60;80.60;;;;;;6293182;28;20209;-73
2023/04/19 07:09:49;;;;;;;6.17;5.57;;;9.50;80.80;;;;;;6288728;28;20205;-73
2023/04/19 07:12:50;;;;;;;7.97;5.77;;;9.60;81.40;;;;;;6266819;28;20180;-67
2023/04/19 07:15:50;;;;;;;6.97;5.60;;;9.80;81.80;;;;;;6280793;28;20180;-73
2023/04/19 07:18:51;;;;;;;6.10;5.50;;;10.00;80.50;;;;;;6278354;28;20204;-73
2023/04/19 07:21:52;;;;;;;6.20;5.60;;;;;;;;;;6308193;28;20284;-73
2023/04/19 07:24:53;;;;;;;5.27;4.80;;;;;;;;;;6296042;28;20196;-73
2023/04/19 07:27:55;;;;;;;7.43;5.40;;;;;;;;;;6281512;28;20294;-73
2023/04/19 07:30:56;;;;;;;6.80;5.33;;;;;;;;;;6307083;28;20245;-73
2023/04/19 07:33:57;;;;;;;5.93;5.13;;;;;;;;;;6294124;28;20282;-73
2023/04/19 07:36:58;;;;;;;5.67;4.70;;;10.00;80.70;;;;;;6277121;28;20281;-73
2023/04/19 07:39:59;;;;;;;5.63;4.53;;;10.70;65.90;;;;;;6280412;28;20209;-73
2023/04/19 07:42:59;;;;;;;4.90;4.43;;;10.80;66.90;;;;;;6269016;28;20235;-73
2023/04/19 07:46:00;;;;;;;6.70;4.67;;;11.00;63.00;;;;;;6306811;28;20327;-73
2023/04/19 07:49:01;;;;;;;6.70;4.50;;;11.10;61.20;;;;;;6281262;28;20209;-73
2023/04/19 07:52:05;;;;;;;6.07;5.47;;;11.40;63.60;;;;;;6263608;28;20216;-73
2023/04/19 07:55:06;;;;;;;5.07;4.57;;;11.30;66.80;;;;;;6287865;28;20185;-73
2023/04/19 07:58:07;;;;;;;5.27;4.53;;;11.40;65.80;;;;;;6294427;28;20205;-73
2023/04/19 08:01:08;;;;;;;5.17;4.50;;;11.50;60.70;;;;;;6267342;28;20204;-73
2023/04/19 08:04:08;;;;;;;5.70;4.70;;;11.70;59.50;;;;;;6290870;28;20188;-73
2023/04/19 08:07:09;;;;;;;4.87;4.37;;;11.70;64.30;;;;;;6256202;28;20288;-73
2023/04/19 08:10:11;;;;;;;5.20;4.70;;;11.50;64.00;;;;;;6261914;28;20218;-73
2023/04/19 08:13:11;;;;;;;7.43;4.83;;;11.70;61.00;;;;;;6291628;28;20190;-73
2023/04/19 08:16:12;;;;;;;4.60;4.17;;;11.70;63.70;;;;;;6295123;28;20252;-73
2023/04/19 08:19:12;;;;;;;5.30;4.17;;;11.70;63.70;;;;;;6277484;28;20264;-73
2023/04/19 08:22:13;;;;;;;5.07;4.60;;;11.90;59.50;;;;;;6273499;28;20249;-73
2023/04/19 08:25:14;;;;;;;8.63;4.73;;;12.00;58.50;;;;;;6286922;28;20232;-73
2023/04/19 08:28:15;;;;;;;4.93;4.03;;;12.30;58.00;;;;;;6282357;28;20245;-73
2023/04/19 08:31:18;;;;;;;6.07;4.20;;;12.30;59.90;;;;;;6269230;28;20204;-73
2023/04/19 08:34:19;;;;;;;5.30;4.70;;;12.50;58.20;;;;;;6296551;28;20267;-70
2023/04/19 08:37:19;;;;;;;5.20;4.03;;;12.50;58.80;;;;;;6278892;28;20189;-68
2023/04/19 08:40:20;;;;;;;4.90;4.40;;;12.50;60.80;;;;;;6264083;28;20193;-71
2023/04/19 08:43:24;;;;;;;4.50;4.10;;;12.40;60.80;;;;;;6274883;28;20220;-67
2023/04/19 08:46:25;;;;;;;5.57;4.07;;;12.50;58.00;;;;;;6288078;28;20201;-68
2023/04/19 08:49:30;;;;;;;4.63;3.87;;;12.50;55.70;;;;;;6285201;28;20213;-68
2023/04/19 08:52:34;;;;;;;4.57;4.03;;;12.70;59.00;;;;;;6289917;28;20227;-68
2023/04/19 08:55:36;;;;;;;5.23;3.87;;;12.80;55.60;;;;;;6302641;28;20189;-65
2023/04/19 08:58:37;;;;;;;6.60;3.90;;;13.00;55.80;;;;;;6275342;28;20291;-68
2023/04/19 09:01:38;;;;;;;4.30;4.00;;;13.10;57.60;;;;;;6287214;28;20192;-68
2023/04/19 09:04:39;;;;;;;4.87;3.67;;;13.50;58.40;;;;;;6283078;28;20198;-66
2023/04/19 09:07:39;;;;;;;4.07;3.67;;;13.90;52.80;;;;;;6276553;28;20224;-66
2023/04/19 09:10:52;;;;;;;5.50;4.00;;;14.10;54.40;;;;;;6276875;28;20178;-66
2023/04/19 09:14:07;;;;;;;4.80;4.23;;;14.30;52.70;;;;;;6327166;28;20186;-69
2023/04/19 09:17:16;;;;;;;4.37;3.97;;;14.30;53.10;;;;;;6322040;28;20276;-71
2023/04/19 09:20:34;;;;;;;4.13;3.53;;;14.30;54.00;;;;;;6302001;28;20290;-74
2023/04/19 09:23:46;;;;;;;4.80;4.30;;;14.40;54.40;;;;;;6270023;28;20187;-74
2023/04/19 09:26:54;;;;;;;6.50;4.50;;;14.40;51.50;;;;;;6288878;28;20197;-72
2023/04/19 09:30:05;;;;;;;4.30;3.83;;;14.50;51.20;;;;;;6298977;28;20292;-73
2023/04/19 09:33:07;;;;;;;5.87;3.87;;;14.60;51.60;;;;;;6276307;28;20225;-73
2023/04/19 09:36:08;;;;;;;4.90;3.90;;;14.70;48.90;;;;;;6293335;28;20193;-72
2023/04/19 09:39:09;;;;;;;4.30;3.90;;;14.70;51.70;;;;;;6278490;28;20203;-72
2023/04/19 09:42:10;;;;;;;4.50;4.10;;;14.90;53.10;;;;;;6291843;28;20317;-72
2023/04/19 09:45:11;;;;;;;4.10;3.53;;;15.00;52.50;;;;;;6298232;28;20190;-72
2023/04/19 09:48:12;;;;;;;3.83;3.40;;;15.00;57.00;;;;;;6274709;28;20303;-72
2023/04/19 09:51:13;;;;;;;5.40;3.70;;;15.10;56.20;;;;;;6269777;28;20200;-72
2023/04/19 09:54:16;;;;;;;4.53;4.13;;;15.30;55.10;;;;;;6279109;28;20186;-73
2023/04/19 09:57:17;;;;;;;5.50;4.07;;;15.50;53.70;;;;;;6280609;28;20188;-72
2023/04/19 10:00:20;;;;;;;5.37;4.50;;;15.60;53.40;;;;;;6248587;28;20190;-72
2023/04/19 10:03:24;;;;;;;5.13;3.80;;;15.60;51.40;;;;;;6266787;28;20177;-72
2023/04/19 10:06:25;;;;;;;4.10;3.70;;;15.60;51.90;;;;;;6316850;28;20216;-72
2023/04/19 10:09:27;;;;;;;5.97;4.73;;;15.60;55.10;;;;;;6281097;28;20236;-72
2023/04/19 10:12:30;;;;;;;4.30;3.97;;;15.50;54.50;;;;;;6280999;28;20196;-72
2023/04/19 10:15:31;;;;;;;5.70;4.40;;;15.20;54.40;;;;;;6288407;28;20239;-72
2023/04/19 10:18:32;;;;;;;4.67;3.90;;;15.00;53.30;;;;;;6279613;28;20190;-72
2023/04/19 10:21:34;;;;;;;7.60;4.23;;;14.80;56.40;;;;;;6271599;28;20194;-72
2023/04/19 10:24:35;;;;;;;6.27;3.97;;;14.70;55.90;;;;;;6274313;28;20235;-72
2023/04/19 10:27:35;;;;;;;3.87;3.47;;;14.50;59.30;;;;;;6262598;28;20197;-72
2023/04/19 10:30:56;;;;;;;4.83;3.90;;;14.30;55.20;;;;;;6270987;28;20272;-72
2023/04/19 10:33:58;;;;;;;6.30;3.67;;;14.20;55.90;;;;;;6275445;28;20232;-72
2023/04/19 10:36:58;;;;;;;4.33;3.93;;;14.10;58.00;;;;;;6280868;28;20283;-72
2023/04/19 10:39:59;;;;;;;6.53;3.70;;;14.00;59.60;;;;;;6273604;28;20189;-73
2023/04/19 10:43:12;;;;;;;5.20;3.67;;;13.90;63.50;;;;;;6286440;28;20193;-71
2023/04/19 10:46:16;;;;;;;5.07;4.57;;;13.70;66.20;;;;;;6306503;28;20189;-70
2023/04/19 10:49:16;;;;;;;5.60;5.10;;;13.50;67.50;;;;;;6313621;28;20200;-71
2023/04/19 10:52:28;;;;;;;5.80;4.90;;;13.40;65.90;;;;;;6265162;28;20202;-71
2023/04/19 10:55:32;;;;;;;5.50;4.97;;;13.10;69.70;;;;;;6291046;28;20182;-70
2023/04/19 10:59:20;;;;;;;6.23;4.60;;;13.00;71.40;;;;;;6298228;28;20189;-72
2023/04/19 11:02:20;;;;;;;5.90;4.57;;;12.90;69.80;;;;;;6298946;28;20212;-71
2023/04/19 11:05:21;;;;;;;5.43;4.47;;;12.70;71.80;;;;;;6328051;28;20248;-72
2023/04/19 11:08:22;;;;;;;6.40;5.63;;;12.60;70.50;;;;;;6270047;28;20221;-72
2023/04/19 11:11:26;;;;;;;8.27;6.77;;;12.50;69.30;;;;;;6299630;28;20237;-71
2023/04/19 11:14:32;;;;;;;9.27;7.67;;;12.50;76.60;;;;;;6303942;28;20177;-73
2023/04/19 11:17:35;;;;;;;9.93;8.93;;;12.10;82.00;;;;;;6320663;28;20253;-72
2023/04/19 11:20:36;;;;;;;10.77;8.83;;;11.70;86.90;;;;;;6265787;28;20189;-71
2023/04/19 11:23:37;;;;;;;12.53;10.50;;;11.40;88.50;;;;;;6289399;28;20276;-73
2023/04/19 11:26:38;;;;;;;11.00;9.87;;;11.30;92.60;;;;;;6260955;28;20192;-72
2023/04/19 11:29:39;;;;;;;11.80;10.70;;;11.10;93.50;;;;;;6284418;28;20223;-71
2023/04/19 11:32:53;;;;;;;13.97;10.17;;;10.90;95.10;;;;;;6293734;28;20180;-70
2023/04/19 11:35:54;;;;;;;12.27;11.07;;;10.70;96.00;;;;;;6271827;28;20225;-72
2023/04/19 11:38:56;;;;;;;11.40;10.30;;;10.50;96.10;;;;;;6263579;28;20190;-73
2023/04/19 11:41:59;;;;;;;11.63;10.43;;;10.40;96.80;;;;;;6281233;28;20194;-73
2023/04/19 11:45:00;;;;;;;13.33;10.33;;;10.40;97.10;;;;;;6280277;28;20190;-72
2023/04/19 11:48:03;;;;;;;16.83;12.07;;;10.40;98.00;;;;;;6280917;28;20239;-73
2023/04/19 11:51:03;;;;;;;12.00;10.70;;;10.40;98.70;;;;;;6291185;28;20219;-73
2023/04/19 11:54:13;;;;;;;13.33;11.20;;;10.40;99.30;;;;;;6287789;28;20190;-72
2023/04/19 11:57:13;;;;;;;14.70;11.53;;;10.40;99.90;;;;;;6274081;28;20186;-73
2023/04/19 12:00:15;;;;;;;21.43;14.73;;;10.50;99.90;;;;;;6274338;28;20213;-72
2023/04/19 12:03:20;;;;;;;27.83;17.13;;;10.60;99.90;;;;;;6254213;28;20197;-72
2023/04/19 12:06:26;;;;;;;20.93;15.10;;;10.80;99.90;;;;;;6287785;28;20249;-72
2023/04/19 12:09:27;;;;;;;26.53;15.27;;;10.90;99.90;;;;;;6276030;28;20206;-72
2023/04/19 12:12:31;;;;;;;17.20;13.50;;;11.00;99.90;;;;;;6291064;28;20197;-73
2023/04/19 12:15:42;;;;;;;19.73;14.63;;;11.10;99.90;;;;;;6293072;28;20277;-72
2023/04/19 12:18:50;;;;;;;18.70;15.53;;;11.30;99.90;;;;;;6284388;28;20192;-73
2023/04/19 12:21:50;;;;;;;23.53;17.50;;;11.40;99.90;;;;;;6326173;28;20192;-73
2023/04/19 12:24:54;;;;;;;18.77;16.63;;;11.50;99.90;;;;;;6292689;28;20188;-71
2023/04/19 12:27:55;;;;;;;26.13;19.60;;;11.50;99.90;;;;;;6292845;28;20210;-71
2023/04/19 12:30:56;;;;;;;22.97;17.77;;;11.70;99.90;;;;;;6263591;28;20193;-72
2023/04/19 12:33:57;;;;;;;27.83;19.30;;;11.80;99.90;;;;;;6272750;28;20290;-72
2023/04/19 12:36:57;;;;;;;22.67;17.57;;;11.90;99.90;;;;;;6305274;28;20285;-72
2023/04/19 12:39:58;;;;;;;21.70;17.23;;;12.00;99.90;;;;;;6301484;28;20211;-73
2023/04/19 12:42:59;;;;;;;26.17;19.53;;;12.10;99.90;;;;;;6283500;28;20196;-73
2023/04/19 12:46:00;;;;;;;23.63;18.63;;;12.20;99.90;;;;;;6285768;28;20212;-73
2023/04/19 12:49:01;;;;;;;21.17;18.97;;;12.30;99.90;;;;;;6315482;28;20241;-73
2023/04/19 12:52:01;;;;;;;20.80;17.73;;;12.20;99.90;;;;;;6288038;28;20193;-73
2023/04/19 12:55:02;;;;;;;21.53;18.97;;;12.10;99.90;;;;;;6259935;28;20187;-73
2023/04/19 12:58:03;;;;;;;20.50;18.40;;;12.00;99.90;;;;;;6264944;28;20208;-72
2023/04/19 13:01:05;;;;;;;18.87;16.87;;;12.20;99.90;;;;;;6289061;28;20213;-73
2023/04/19 13:04:07;;;;;;;18.60;16.60;;;12.30;99.90;;;;;;6264054;28;20200;-73
2023/04/19 13:07:08;;;;;;;17.70;15.80;;;12.30;99.90;;;;;;6281862;28;20288;-73
2023/04/19 13:10:09;;;;;;;19.03;16.30;;;12.40;99.60;;;;;;6291582;28;20690;-73
2023/04/19 13:13:09;;;;;;;17.37;15.67;;;12.50;99.90;;;;;;6264544;28;20194;-73
2023/04/19 13:16:10;;;;;;;15.53;14.00;;;12.50;99.90;;;;;;6301899;28;20212;-73
2023/04/19 13:19:11;;;;;;;16.00;14.50;;;12.50;98.20;;;;;;6294442;28;20188;-73
2023/04/19 13:22:11;;;;;;;16.27;14.43;;;12.30;98.20;;;;;;6297313;28;20196;-73
2023/04/19 13:25:12;;;;;;;16.90;15.20;;;12.30;99.30;;;;;;6281959;28;20193;-73
2023/04/19 13:28:13;;;;;;;16.07;14.37;;;12.30;99.00;;;;;;6289480;28;20213;-73
2023/04/19 13:31:13;;;;;;;15.20;13.70;;;12.20;99.20;;;;;;6295145;28;20200;-73
2023/04/19 13:34:15;;;;;;;15.67;14.20;;;12.20;97.50;;;;;;6284831;28;20241;-73
2023/04/19 13:37:15;;;;;;;14.37;12.87;;;12.10;98.50;;;;;;6281695;28;20201;-73
2023/04/19 13:40:16;;;;;;;16.57;14.87;;;12.00;93.70;;;;;;6282886;28;20246;-73
2023/04/19 13:43:17;;;;;;;16.87;14.33;;;12.00;96.30;;;;;;6276013;28;20198;-74
2023/04/19 13:46:18;;;;;;;15.63;13.93;;;12.00;97.70;;;;;;6271988;28;20207;-74
2023/04/19 13:49:18;;;;;;;16.23;14.07;;;12.10;96.00;;;;;;6286699;28;20222;-74
2023/04/19 13:52:19;;;;;;;13.67;11.87;;;12.10;91.60;;;;;;6284138;28;20193;-74
2023/04/19 13:55:20;;;;;;;13.00;11.70;;;12.20;89.20;;;;;;6283650;28;20193;-74
2023/04/19 13:58:21;;;;;;;15.37;12.23;;;12.20;89.20;;;;;;6261094;28;20201;-72
2023/04/19 14:01:21;;;;;;;12.77;11.47;;;12.50;90.60;;;;;;6280458;28;20193;-73
2023/04/19 14:04:22;;;;;;;13.53;12.23;;;13.30;90.20;;;;;;6267790;28;20203;-73
2023/04/19 14:07:23;;;;;;;13.63;12.27;;;14.30;90.30;;;;;;6269224;28;20296;-71
2023/04/19 14:10:23;;;;;;;10.87;9.77;;;15.80;91.10;;;;;;6291497;28;20239;-71
2023/04/19 14:13:25;;;;;;;11.30;10.20;;;17.00;80.70;;;;;;6310124;28;20190;-69
2023/04/19 14:16:26;;;;;;;11.20;9.87;;;17.10;81.80;;;;;;6279288;28;20247;-72
2023/04/19 14:19:27;;;;;;;10.40;9.40;;;17.30;76.30;;;;;;6267900;28;20198;-72
2023/04/19 14:22:27;;;;;;;8.77;7.97;;;17.90;76.80;;;;;;6278268;28;20193;-72
2023/04/19 14:25:28;;;;;;;9.63;8.63;;;19.10;63.40;;;;;;6297215;28;20203;-72
2023/04/19 14:28:29;;;;;;;9.30;8.60;;;18.30;73.40;;;;;;6281044;28;20220;-72
2023/04/19 14:31:30;;;;;;;9.67;8.83;;;17.50;73.60;;;;;;6283984;28;20192;-72
2023/04/19 14:34:31;;;;;;;9.30;8.50;;;16.90;78.50;;;;;;6278432;28;20233;-72
2023/04/19 14:37:32;;;;;;;10.47;9.40;;;16.40;72.10;;;;;;6297289;28;20200;-73
2023/04/19 14:40:33;;;;;;;9.13;8.30;;;15.80;74.70;;;;;;6296613;28;20197;-73
2023/04/19 14:43:34;;;;;;;10.63;9.70;;;;;;;;;;6295523;28;20283;-72
2023/04/19 14:46:35;;;;;;;11.93;10.83;;;;;;;;;;6282015;28;20194;-73
2023/04/19 14:49:36;;;;;;;14.90;12.63;;;;;;;;;;6295713;28;20270;-73
2023/04/19 14:52:37;;;;;;;15.77;14.10;;;;;;;;;;6303967;28;20188;-73
2023/04/19 14:55:38;;;;;;;16.43;14.73;;;;;;;;;;6305586;28;20196;-73
2023/04/19 14:58:39;;;;;;;16.17;13.87;;;;;;;;;;6299300;28;20292;-74
2023/04/19 15:01:40;;;;;;;59.43;19.97;;;;;;;;;;6327005;28;20224;-75
2023/04/19 15:04:41;;;;;;;42.93;18.60;;;;;;;;;;6297846;28;20220;-74
2023/04/19 15:07:42;;;;;;;56.43;20.70;;;;;;;;;;6292280;28;20279;-74
2023/04/19 15:10:43;;;;;;;27.93;15.77;;;;;;;;;;6284840;28;20220;-75
2023/04/19 15:13:45;;;;;;;24.50;15.40;;;;;;;;;;6284529;28;20211;-73
2023/04/19 15:16:46;;;;;;;32.10;17.90;;;;;;;;;;6309100;28;20269;-72
2023/04/19 15:19:47;;;;;;;41.57;18.10;;;;;;;;;;6284391;28;20205;-72
2023/04/19 15:22:48;;;;;;;86.43;24.40;;;;;;;;;;6274259;28;20197;-74
2023/04/19 15:25:49;;;;;;;38.20;16.20;;;;;;;;;;6281683;28;20193;-74
2023/04/19 15:28:50;;;;;;;32.87;16.77;;;;;;;;;;6316401;28;20224;-75
2023/04/19 15:31:51;;;;;;;51.17;17.37;;;;;;;;;;6281728;28;20193;-75
2023/04/19 15:34:52;;;;;;;59.13;20.63;;;;;;;;;;6302720;28;20241;-75
2023/04/19 15:37:53;;;;;;;48.40;18.00;;;;;;;;;;6312986;28;20200;-75
2023/04/19 15:40:55;;;;;;;55.27;18.27;;;;;;;;;;6275591;28;20243;-72
2023/04/19 15:43:57;;;;;;;50.77;18.63;;;;;;;;;;6325303;28;20207;-72
2023/04/19 15:46:58;;;;;;;47.77;17.30;;;;;;;;;;6323141;28;20192;-74
2023/04/19 15:50:00;;;;;;;31.40;14.40;;;;;;;;;;6303596;28;20205;-72
2023/04/19 15:53:01;;;;;;;35.43;15.53;;;;;;;;;;6324287;28;20181;-73
2023/04/19 15:56:02;;;;;;;25.47;13.20;;;;;;;;;;6321546;28;20211;-73
2023/04/19 15:59:03;;;;;;;45.87;17.53;;;;;;;;;;6327131;28;20189;-73
2023/04/19 16:02:04;;;;;;;30.93;14.87;;;;;;;;;;6268839;28;20204;-72
2023/04/19 16:05:05;;;;;;;44.40;16.83;;;;;;;;;;6289170;28;20185;-73
2023/04/19 16:08:08;;;;;;;33.80;13.93;;;;;;;;;;6290370;28;20307;-74
2023/04/19 16:11:09;;;;;;;30.37;14.47;;;;;;;;;;6307327;28;20188;-74
2023/04/19 16:14:10;;;;;;;31.23;14.40;;;;;;;;;;6302188;28;20201;-74